FMNA

Arrachart Airport

Madagascar
METAR FMNA 161100Z 00000KT 9999 SCT020 SCT230 32/20 Q1011
Observed Flight Rules
Dec-16 @ 11:00 UTC (43 minutes ago) Visual Flight Rules
Visibility Clouds
10,000+ meters
  • Scattered at 2,000' AGL
  • Scattered at 23,000' AGL
Temperatures Readings
Current 32°C / 90°F
Dewpoint 20°C / 68°F
Humidity 49%
Altimeter 29.85" Hg
Pressure 1011 hPa
Elevation 105
METAR FMNA 161100Z 00000KT 9999 SCT020 SCT230 32/20 Q1011
Observed Flight Rules
Dec-16 @ 11:00 UTC
(43 minutes ago)
VFR
Clouds
  • Scattered at 2,000' AGL
  • Scattered at 23,000' AGL
Temperature Dewpoint
32°C / 90°F 20°C / 68°F
Humidity Altimeter Pressure
49% 29.85" Hg 1011 hPa